sensor_id;sensor_type;location;lat;lon;timestamp;P1;durP1;ratioP1;P2;durP2;ratioP2
15408;SDS011;7803;48.130;13.788;2022-07-29T00:02:18;5.00;;;4.60;;
15408;SDS011;7803;48.130;13.788;2022-07-29T00:05:20;5.57;;;5.03;;
15408;SDS011;7803;48.130;13.788;2022-07-29T00:08:22;5.50;;;4.93;;
15408;SDS011;7803;48.130;13.788;2022-07-29T00:11:24;5.55;;;5.00;;
15408;SDS011;7803;48.130;13.788;2022-07-29T00:14:28;4.95;;;4.55;;
15408;SDS011;7803;48.130;13.788;2022-07-29T00:17:30;5.32;;;4.93;;
15408;SDS011;7803;48.130;13.788;2022-07-29T00:20:34;4.80;;;4.45;;
15408;SDS011;7803;48.130;13.788;2022-07-29T00:23:36;5.25;;;4.75;;
15408;SDS011;7803;48.130;13.788;2022-07-29T00:26:38;5.78;;;4.65;;
15408;SDS011;7803;48.130;13.788;2022-07-29T00:29:41;5.18;;;4.68;;
15408;SDS011;7803;48.130;13.788;2022-07-29T00:32:43;5.03;;;4.63;;
15408;SDS011;7803;48.130;13.788;2022-07-29T00:35:45;5.63;;;5.13;;
15408;SDS011;7803;48.130;13.788;2022-07-29T00:38:46;5.20;;;4.70;;
15408;SDS011;7803;48.130;13.788;2022-07-29T00:41:48;5.40;;;5.00;;
15408;SDS011;7803;48.130;13.788;2022-07-29T00:44:52;5.50;;;5.00;;
15408;SDS011;7803;48.130;13.788;2022-07-29T00:47:54;5.20;;;4.78;;
15408;SDS011;7803;48.130;13.788;2022-07-29T00:50:56;5.05;;;4.65;;
15408;SDS011;7803;48.130;13.788;2022-07-29T00:53:59;5.45;;;4.95;;
15408;SDS011;7803;48.130;13.788;2022-07-29T00:57:01;5.60;;;5.10;;
15408;SDS011;7803;48.130;13.788;2022-07-29T01:00:06;4.97;;;4.57;;
15408;SDS011;7803;48.130;13.788;2022-07-29T01:03:11;5.30;;;4.80;;
15408;SDS011;7803;48.130;13.788;2022-07-29T01:06:13;5.82;;;5.32;;
15408;SDS011;7803;48.130;13.788;2022-07-29T01:09:17;5.47;;;4.97;;
15408;SDS011;7803;48.130;13.788;2022-07-29T01:12:21;5.43;;;4.90;;
15408;SDS011;7803;48.130;13.788;2022-07-29T01:15:27;5.05;;;4.65;;
15408;SDS011;7803;48.130;13.788;2022-07-29T01:18:30;5.18;;;4.78;;
15408;SDS011;7803;48.130;13.788;2022-07-29T01:21:44;5.05;;;4.55;;
15408;SDS011;7803;48.130;13.788;2022-07-29T01:24:58;5.45;;;4.95;;
15408;SDS011;7803;48.130;13.788;2022-07-29T01:28:17;5.55;;;5.05;;
15408;SDS011;7803;48.130;13.788;2022-07-29T01:31:56;5.25;;;4.85;;
15408;SDS011;7803;48.130;13.788;2022-07-29T01:35:02;5.65;;;5.15;;
15408;SDS011;7803;48.130;13.788;2022-07-29T01:38:08;5.30;;;4.80;;
15408;SDS011;7803;48.130;13.788;2022-07-29T01:41:14;5.65;;;5.15;;
15408;SDS011;7803;48.130;13.788;2022-07-29T01:44:18;5.60;;;5.10;;
15408;SDS011;7803;48.130;13.788;2022-07-29T01:47:31;5.70;;;5.20;;
15408;SDS011;7803;48.130;13.788;2022-07-29T01:50:40;6.22;;;4.90;;
15408;SDS011;7803;48.130;13.788;2022-07-29T01:53:50;5.45;;;5.05;;
15408;SDS011;7803;48.130;13.788;2022-07-29T01:56:59;5.60;;;5.10;;
15408;SDS011;7803;48.130;13.788;2022-07-29T02:00:03;5.53;;;5.03;;
15408;SDS011;7803;48.130;13.788;2022-07-29T02:03:09;5.72;;;5.22;;
15408;SDS011;7803;48.130;13.788;2022-07-29T02:06:14;5.47;;;4.97;;
15408;SDS011;7803;48.130;13.788;2022-07-29T02:09:22;5.10;;;4.70;;
15408;SDS011;7803;48.130;13.788;2022-07-29T02:12:26;5.50;;;5.00;;
15408;SDS011;7803;48.130;13.788;2022-07-29T02:15:31;5.28;;;4.85;;
15408;SDS011;7803;48.130;13.788;2022-07-29T02:18:36;5.60;;;5.10;;
15408;SDS011;7803;48.130;13.788;2022-07-29T02:21:40;5.10;;;4.60;;
15408;SDS011;7803;48.130;13.788;2022-07-29T02:24:43;5.70;;;4.72;;
15408;SDS011;7803;48.130;13.788;2022-07-29T02:27:47;4.70;;;4.30;;
15408;SDS011;7803;48.130;13.788;2022-07-29T02:30:51;5.10;;;4.65;;
15408;SDS011;7803;48.130;13.788;2022-07-29T02:33:56;5.50;;;5.00;;
15408;SDS011;7803;48.130;13.788;2022-07-29T02:36:59;5.32;;;4.85;;
15408;SDS011;7803;48.130;13.788;2022-07-29T02:40:02;4.97;;;4.57;;
15408;SDS011;7803;48.130;13.788;2022-07-29T02:43:05;5.20;;;4.65;;
15408;SDS011;7803;48.130;13.788;2022-07-29T02:46:11;5.20;;;4.80;;
15408;SDS011;7803;48.130;13.788;2022-07-29T02:49:25;5.38;;;4.88;;
15408;SDS011;7803;48.130;13.788;2022-07-29T02:52:37;4.68;;;4.28;;
15408;SDS011;7803;48.130;13.788;2022-07-29T02:55:43;5.18;;;4.78;;
15408;SDS011;7803;48.130;13.788;2022-07-29T02:58:49;5.32;;;4.82;;
15408;SDS011;7803;48.130;13.788;2022-07-29T03:01:56;6.57;;;5.60;;
15408;SDS011;7803;48.130;13.788;2022-07-29T03:05:02;5.45;;;4.95;;
15408;SDS011;7803;48.130;13.788;2022-07-29T03:08:06;5.15;;;4.70;;
15408;SDS011;7803;48.130;13.788;2022-07-29T03:11:10;5.65;;;4.90;;
15408;SDS011;7803;48.130;13.788;2022-07-29T03:14:13;5.63;;;4.90;;
15408;SDS011;7803;48.130;13.788;2022-07-29T03:17:16;5.53;;;4.90;;
15408;SDS011;7803;48.130;13.788;2022-07-29T03:20:20;5.97;;;5.40;;
15408;SDS011;7803;48.130;13.788;2022-07-29T03:23:22;5.35;;;4.82;;
15408;SDS011;7803;48.130;13.788;2022-07-29T03:26:27;5.88;;;4.93;;
15408;SDS011;7803;48.130;13.788;2022-07-29T03:29:29;5.70;;;5.10;;
15408;SDS011;7803;48.130;13.788;2022-07-29T03:32:32;5.85;;;5.35;;
15408;SDS011;7803;48.130;13.788;2022-07-29T03:35:36;6.30;;;5.70;;
15408;SDS011;7803;48.130;13.788;2022-07-29T03:38:38;5.68;;;5.18;;
15408;SDS011;7803;48.130;13.788;2022-07-29T03:41:43;6.97;;;4.97;;
15408;SDS011;7803;48.130;13.788;2022-07-29T03:44:48;5.40;;;4.90;;
15408;SDS011;7803;48.130;13.788;2022-07-29T03:47:53;5.35;;;4.85;;
15408;SDS011;7803;48.130;13.788;2022-07-29T03:51:00;5.50;;;5.00;;
15408;SDS011;7803;48.130;13.788;2022-07-29T03:54:02;5.57;;;5.03;;
15408;SDS011;7803;48.130;13.788;2022-07-29T03:57:05;5.82;;;5.25;;
15408;SDS011;7803;48.130;13.788;2022-07-29T04:00:08;5.40;;;4.90;;
15408;SDS011;7803;48.130;13.788;2022-07-29T04:03:11;5.80;;;5.30;;
15408;SDS011;7803;48.130;13.788;2022-07-29T04:06:15;5.65;;;5.15;;
15408;SDS011;7803;48.130;13.788;2022-07-29T04:09:17;5.18;;;4.78;;
15408;SDS011;7803;48.130;13.788;2022-07-29T04:12:19;5.75;;;5.25;;
15408;SDS011;7803;48.130;13.788;2022-07-29T04:15:22;5.47;;;4.75;;
15408;SDS011;7803;48.130;13.788;2022-07-29T04:18:24;5.63;;;5.05;;
15408;SDS011;7803;48.130;13.788;2022-07-29T04:21:28;5.65;;;5.15;;
15408;SDS011;7803;48.130;13.788;2022-07-29T04:24:30;5.40;;;4.90;;
15408;SDS011;7803;48.130;13.788;2022-07-29T04:27:32;5.40;;;4.90;;
15408;SDS011;7803;48.130;13.788;2022-07-29T04:30:34;5.60;;;5.20;;
15408;SDS011;7803;48.130;13.788;2022-07-29T04:33:38;5.40;;;4.93;;
15408;SDS011;7803;48.130;13.788;2022-07-29T04:36:41;5.40;;;4.95;;
15408;SDS011;7803;48.130;13.788;2022-07-29T04:39:43;5.88;;;5.13;;
15408;SDS011;7803;48.130;13.788;2022-07-29T04:42:45;5.45;;;4.95;;
15408;SDS011;7803;48.130;13.788;2022-07-29T04:45:47;4.97;;;4.57;;
15408;SDS011;7803;48.130;13.788;2022-07-29T04:48:49;5.50;;;5.00;;
15408;SDS011;7803;48.130;13.788;2022-07-29T04:51:52;5.72;;;5.22;;
15408;SDS011;7803;48.130;13.788;2022-07-29T04:54:54;5.95;;;5.20;;
15408;SDS011;7803;48.130;13.788;2022-07-29T04:57:56;5.78;;;5.18;;
15408;SDS011;7803;48.130;13.788;2022-07-29T05:00:58;5.85;;;5.35;;
15408;SDS011;7803;48.130;13.788;2022-07-29T05:04:00;6.18;;;5.57;;
15408;SDS011;7803;48.130;13.788;2022-07-29T05:07:04;5.50;;;5.00;;
15408;SDS011;7803;48.130;13.788;2022-07-29T05:10:06;5.38;;;4.97;;
15408;SDS011;7803;48.130;13.788;2022-07-29T05:13:08;5.68;;;5.18;;
15408;SDS011;7803;48.130;13.788;2022-07-29T05:16:10;5.93;;;5.38;;
15408;SDS011;7803;48.130;13.788;2022-07-29T05:19:13;5.60;;;5.13;;
15408;SDS011;7803;48.130;13.788;2022-07-29T05:22:16;5.53;;;5.03;;
15408;SDS011;7803;48.130;13.788;2022-07-29T05:25:18;5.97;;;5.47;;
15408;SDS011;7803;48.130;13.788;2022-07-29T05:28:21;6.30;;;5.70;;
15408;SDS011;7803;48.130;13.788;2022-07-29T05:31:23;5.90;;;5.30;;
15408;SDS011;7803;48.130;13.788;2022-07-29T05:34:25;5.97;;;5.25;;
15408;SDS011;7803;48.130;13.788;2022-07-29T05:37:29;5.78;;;5.28;;
15408;SDS011;7803;48.130;13.788;2022-07-29T05:40:31;5.57;;;5.10;;
15408;SDS011;7803;48.130;13.788;2022-07-29T05:43:34;5.75;;;5.25;;
15408;SDS011;7803;48.130;13.788;2022-07-29T05:46:36;5.60;;;5.10;;
15408;SDS011;7803;48.130;13.788;2022-07-29T05:49:38;7.32;;;5.93;;
15408;SDS011;7803;48.130;13.788;2022-07-29T05:52:41;5.28;;;4.80;;
15408;SDS011;7803;48.130;13.788;2022-07-29T05:55:43;5.55;;;5.07;;
15408;SDS011;7803;48.130;13.788;2022-07-29T05:58:45;7.25;;;5.93;;
15408;SDS011;7803;48.130;13.788;2022-07-29T06:01:47;6.25;;;5.68;;
15408;SDS011;7803;48.130;13.788;2022-07-29T06:04:49;6.78;;;5.85;;
15408;SDS011;7803;48.130;13.788;2022-07-29T06:07:53;6.32;;;5.72;;
15408;SDS011;7803;48.130;13.788;2022-07-29T06:10:55;5.85;;;5.35;;
15408;SDS011;7803;48.130;13.788;2022-07-29T06:13:57;5.63;;;5.13;;
15408;SDS011;7803;48.130;13.788;2022-07-29T06:16:59;5.70;;;5.20;;
15408;SDS011;7803;48.130;13.788;2022-07-29T06:20:01;6.75;;;5.05;;
15408;SDS011;7803;48.130;13.788;2022-07-29T06:23:04;5.80;;;4.88;;
15408;SDS011;7803;48.130;13.788;2022-07-29T06:26:06;4.95;;;4.55;;
15408;SDS011;7803;48.130;13.788;2022-07-29T06:29:09;5.25;;;4.78;;
15408;SDS011;7803;48.130;13.788;2022-07-29T06:32:11;5.50;;;5.00;;
15408;SDS011;7803;48.130;13.788;2022-07-29T06:35:13;4.82;;;4.40;;
15408;SDS011;7803;48.130;13.788;2022-07-29T06:38:17;5.20;;;4.70;;
15408;SDS011;7803;48.130;13.788;2022-07-29T06:41:18;5.47;;;4.90;;
15408;SDS011;7803;48.130;13.788;2022-07-29T06:44:20;4.75;;;4.35;;
15408;SDS011;7803;48.130;13.788;2022-07-29T06:47:22;4.90;;;4.50;;
15408;SDS011;7803;48.130;13.788;2022-07-29T06:50:24;5.43;;;4.93;;
15408;SDS011;7803;48.130;13.788;2022-07-29T06:53:28;4.75;;;4.38;;
15408;SDS011;7803;48.130;13.788;2022-07-29T06:56:31;4.72;;;4.32;;
15408;SDS011;7803;48.130;13.788;2022-07-29T06:59:35;5.18;;;4.78;;
15408;SDS011;7803;48.130;13.788;2022-07-29T07:02:38;5.03;;;4.57;;
15408;SDS011;7803;48.130;13.788;2022-07-29T07:05:40;4.88;;;4.40;;
15408;SDS011;7803;48.130;13.788;2022-07-29T07:08:43;4.65;;;4.25;;
15408;SDS011;7803;48.130;13.788;2022-07-29T07:11:45;4.88;;;4.47;;
15408;SDS011;7803;48.130;13.788;2022-07-29T07:14:47;5.20;;;4.70;;
15408;SDS011;7803;48.130;13.788;2022-07-29T07:17:49;5.65;;;4.70;;
15408;SDS011;7803;48.130;13.788;2022-07-29T07:20:51;5.45;;;4.97;;
15408;SDS011;7803;48.130;13.788;2022-07-29T07:23:55;5.13;;;4.70;;
15408;SDS011;7803;48.130;13.788;2022-07-29T07:26:57;5.10;;;4.60;;
15408;SDS011;7803;48.130;13.788;2022-07-29T07:29:59;5.40;;;4.93;;
15408;SDS011;7803;48.130;13.788;2022-07-29T07:33:01;4.95;;;4.55;;
15408;SDS011;7803;48.130;13.788;2022-07-29T07:36:03;5.15;;;4.75;;
15408;SDS011;7803;48.130;13.788;2022-07-29T07:39:07;5.57;;;5.00;;
15408;SDS011;7803;48.130;13.788;2022-07-29T07:42:09;5.55;;;5.03;;
15408;SDS011;7803;48.130;13.788;2022-07-29T07:45:12;5.50;;;5.00;;
15408;SDS011;7803;48.130;13.788;2022-07-29T07:48:14;5.20;;;4.72;;
15408;SDS011;7803;48.130;13.788;2022-07-29T07:51:16;5.50;;;5.00;;
15408;SDS011;7803;48.130;13.788;2022-07-29T07:54:20;5.32;;;4.82;;
15408;SDS011;7803;48.130;13.788;2022-07-29T07:57:22;5.72;;;5.15;;
15408;SDS011;7803;48.130;13.788;2022-07-29T08:00:24;6.20;;;5.60;;
15408;SDS011;7803;48.130;13.788;2022-07-29T08:03:26;5.30;;;4.85;;
15408;SDS011;7803;48.130;13.788;2022-07-29T08:06:28;6.05;;;5.55;;
15408;SDS011;7803;48.130;13.788;2022-07-29T08:09:32;5.63;;;5.13;;
15408;SDS011;7803;48.130;13.788;2022-07-29T08:12:34;6.00;;;5.40;;
15408;SDS011;7803;48.130;13.788;2022-07-29T08:15:36;6.60;;;6.00;;
15408;SDS011;7803;48.130;13.788;2022-07-29T08:18:41;6.53;;;5.93;;
15408;SDS011;7803;48.130;13.788;2022-07-29T08:21:45;8.82;;;6.28;;
15408;SDS011;7803;48.130;13.788;2022-07-29T08:24:48;8.20;;;6.05;;
15408;SDS011;7803;48.130;13.788;2022-07-29T08:27:54;6.38;;;5.82;;
15408;SDS011;7803;48.130;13.788;2022-07-29T08:30:56;6.60;;;5.97;;
15408;SDS011;7803;48.130;13.788;2022-07-29T08:33:58;6.60;;;5.97;;
15408;SDS011;7803;48.130;13.788;2022-07-29T08:37:00;6.53;;;5.93;;
15408;SDS011;7803;48.130;13.788;2022-07-29T08:40:04;6.65;;;6.00;;
15408;SDS011;7803;48.130;13.788;2022-07-29T08:43:07;6.68;;;6.07;;
15408;SDS011;7803;48.130;13.788;2022-07-29T08:46:09;7.30;;;5.97;;
15408;SDS011;7803;48.130;13.788;2022-07-29T08:49:11;6.20;;;5.70;;
15408;SDS011;7803;48.130;13.788;2022-07-29T08:52:13;7.80;;;6.20;;
15408;SDS011;7803;48.130;13.788;2022-07-29T08:55:18;6.47;;;5.88;;
15408;SDS011;7803;48.130;13.788;2022-07-29T08:58:21;6.28;;;5.57;;
15408;SDS011;7803;48.130;13.788;2022-07-29T09:01:24;6.50;;;5.85;;
15408;SDS011;7803;48.130;13.788;2022-07-29T09:04:29;7.72;;;6.25;;
15408;SDS011;7803;48.130;13.788;2022-07-29T09:07:34;6.78;;;5.57;;
15408;SDS011;7803;48.130;13.788;2022-07-29T09:10:37;6.60;;;6.00;;
15408;SDS011;7803;48.130;13.788;2022-07-29T09:13:40;6.47;;;5.65;;
15408;SDS011;7803;48.130;13.788;2022-07-29T09:16:46;7.63;;;5.97;;
15408;SDS011;7803;48.130;13.788;2022-07-29T09:19:50;7.13;;;6.03;;
15408;SDS011;7803;48.130;13.788;2022-07-29T09:22:52;6.70;;;5.82;;
15408;SDS011;7803;48.130;13.788;2022-07-29T09:25:56;6.93;;;5.80;;
15408;SDS011;7803;48.130;13.788;2022-07-29T09:29:10;6.13;;;5.50;;
15408;SDS011;7803;48.130;13.788;2022-07-29T09:32:13;6.30;;;5.50;;
15408;SDS011;7803;48.130;13.788;2022-07-29T09:35:16;6.22;;;5.63;;
15408;SDS011;7803;48.130;13.788;2022-07-29T09:38:18;6.68;;;5.75;;
15408;SDS011;7803;48.130;13.788;2022-07-29T09:41:22;6.32;;;5.38;;
15408;SDS011;7803;48.130;13.788;2022-07-29T09:44:24;6.28;;;5.10;;
15408;SDS011;7803;48.130;13.788;2022-07-29T09:47:39;6.80;;;5.25;;
15408;SDS011;7803;48.130;13.788;2022-07-29T09:50:45;5.60;;;5.15;;
15408;SDS011;7803;48.130;13.788;2022-07-29T09:53:49;5.35;;;4.85;;
15408;SDS011;7803;48.130;13.788;2022-07-29T09:56:53;6.10;;;4.90;;
15408;SDS011;7803;48.130;13.788;2022-07-29T09:59:56;5.63;;;4.90;;
15408;SDS011;7803;48.130;13.788;2022-07-29T10:02:59;6.03;;;5.35;;
15408;SDS011;7803;48.130;13.788;2022-07-29T10:06:06;5.45;;;4.95;;
15408;SDS011;7803;48.130;13.788;2022-07-29T10:09:10;5.63;;;5.13;;
15408;SDS011;7803;48.130;13.788;2022-07-29T10:12:13;5.43;;;4.85;;
15408;SDS011;7803;48.130;13.788;2022-07-29T10:15:15;5.30;;;4.80;;
15408;SDS011;7803;48.130;13.788;2022-07-29T10:18:18;5.20;;;4.70;;
15408;SDS011;7803;48.130;13.788;2022-07-29T10:21:20;5.20;;;4.70;;
15408;SDS011;7803;48.130;13.788;2022-07-29T10:24:24;5.47;;;4.47;;
15408;SDS011;7803;48.130;13.788;2022-07-29T10:27:28;5.03;;;4.50;;
15408;SDS011;7803;48.130;13.788;2022-07-29T10:30:30;4.90;;;4.40;;
15408;SDS011;7803;48.130;13.788;2022-07-29T10:33:39;5.15;;;4.45;;
15408;SDS011;7803;48.130;13.788;2022-07-29T10:36:53;4.65;;;4.25;;
15408;SDS011;7803;48.130;13.788;2022-07-29T10:40:07;4.30;;;3.92;;
15408;SDS011;7803;48.130;13.788;2022-07-29T10:43:37;5.82;;;4.78;;
15408;SDS011;7803;48.130;13.788;2022-07-29T10:46:44;4.70;;;4.15;;
15408;SDS011;7803;48.130;13.788;2022-07-29T10:49:55;5.45;;;4.10;;
15408;SDS011;7803;48.130;13.788;2022-07-29T10:53:00;4.57;;;4.03;;
15408;SDS011;7803;48.130;13.788;2022-07-29T10:56:02;4.18;;;3.88;;
15408;SDS011;7803;48.130;13.788;2022-07-29T10:59:24;5.80;;;4.65;;
15408;SDS011;7803;48.130;13.788;2022-07-29T11:02:41;4.55;;;4.15;;
15408;SDS011;7803;48.130;13.788;2022-07-29T11:05:51;4.60;;;4.20;;
15408;SDS011;7803;48.130;13.788;2022-07-29T11:15:56;4.97;;;4.18;;
15408;SDS011;7803;48.130;13.788;2022-07-29T11:22:32;4.20;;;3.80;;
15408;SDS011;7803;48.130;13.788;2022-07-29T11:25:35;4.32;;;3.92;;
15408;SDS011;7803;48.130;13.788;2022-07-29T11:28:38;4.60;;;4.20;;
15408;SDS011;7803;48.130;13.788;2022-07-29T11:31:51;4.60;;;4.15;;
15408;SDS011;7803;48.130;13.788;2022-07-29T11:35:11;4.65;;;4.25;;
15408;SDS011;7803;48.130;13.788;2022-07-29T11:38:24;4.97;;;4.45;;
15408;SDS011;7803;48.130;13.788;2022-07-29T11:41:27;4.63;;;4.22;;
15408;SDS011;7803;48.130;13.788;2022-07-29T11:47:58;4.07;;;3.67;;
15408;SDS011;7803;48.130;13.788;2022-07-29T11:51:00;4.25;;;3.95;;
15408;SDS011;7803;48.130;13.788;2022-07-29T11:54:11;4.10;;;3.80;;
15408;SDS011;7803;48.130;13.788;2022-07-29T11:57:19;4.28;;;3.88;;
15408;SDS011;7803;48.130;13.788;2022-07-29T12:00:23;4.57;;;3.97;;
15408;SDS011;7803;48.130;13.788;2022-07-29T12:03:28;4.32;;;3.92;;
15408;SDS011;7803;48.130;13.788;2022-07-29T12:06:30;4.63;;;4.10;;
15408;SDS011;7803;48.130;13.788;2022-07-29T12:09:32;4.13;;;3.72;;
15408;SDS011;7803;48.130;13.788;2022-07-29T12:12:35;4.47;;;4.07;;
15408;SDS011;7803;48.130;13.788;2022-07-29T12:15:38;4.20;;;3.80;;
15408;SDS011;7803;48.130;13.788;2022-07-29T12:18:42;4.63;;;3.83;;
15408;SDS011;7803;48.130;13.788;2022-07-29T12:21:55;5.03;;;4.05;;
15408;SDS011;7803;48.130;13.788;2022-07-29T12:25:01;4.60;;;4.20;;
15408;SDS011;7803;48.130;13.788;2022-07-29T12:28:05;4.40;;;4.00;;
15408;SDS011;7803;48.130;13.788;2022-07-29T12:31:12;4.22;;;3.85;;
15408;SDS011;7803;48.130;13.788;2022-07-29T12:34:16;4.03;;;3.72;;
15408;SDS011;7803;48.130;13.788;2022-07-29T12:37:18;4.15;;;3.75;;
15408;SDS011;7803;48.130;13.788;2022-07-29T12:40:21;4.32;;;3.92;;
15408;SDS011;7803;48.130;13.788;2022-07-29T12:43:24;3.83;;;3.50;;
15408;SDS011;7803;48.130;13.788;2022-07-29T12:46:26;4.53;;;4.10;;
15408;SDS011;7803;48.130;13.788;2022-07-29T12:49:29;4.22;;;3.83;;
15408;SDS011;7803;48.130;13.788;2022-07-29T12:52:32;4.15;;;3.75;;
15408;SDS011;7803;48.130;13.788;2022-07-29T12:55:39;5.00;;;3.95;;
15408;SDS011;7803;48.130;13.788;2022-07-29T12:58:45;3.85;;;3.55;;
15408;SDS011;7803;48.130;13.788;2022-07-29T13:01:48;4.03;;;3.70;;
15408;SDS011;7803;48.130;13.788;2022-07-29T13:04:56;4.15;;;3.70;;
15408;SDS011;7803;48.130;13.788;2022-07-29T13:08:09;4.57;;;3.90;;
15408;SDS011;7803;48.130;13.788;2022-07-29T13:11:26;4.50;;;4.10;;
15408;SDS011;7803;48.130;13.788;2022-07-29T13:14:30;3.92;;;3.60;;
15408;SDS011;7803;48.130;13.788;2022-07-29T13:17:33;4.30;;;3.90;;
15408;SDS011;7803;48.130;13.788;2022-07-29T13:20:43;4.13;;;3.72;;
15408;SDS011;7803;48.130;13.788;2022-07-29T13:23:46;4.10;;;3.80;;
15408;SDS011;7803;48.130;13.788;2022-07-29T13:26:48;4.07;;;3.72;;
15408;SDS011;7803;48.130;13.788;2022-07-29T13:29:52;3.42;;;3.15;;
15408;SDS011;7803;48.130;13.788;2022-07-29T13:32:56;3.95;;;3.65;;
15408;SDS011;7803;48.130;13.788;2022-07-29T13:35:59;5.05;;;3.97;;
15408;SDS011;7803;48.130;13.788;2022-07-29T13:39:02;3.85;;;3.53;;
15408;SDS011;7803;48.130;13.788;2022-07-29T13:42:05;3.83;;;3.53;;
15408;SDS011;7803;48.130;13.788;2022-07-29T13:45:09;4.15;;;3.65;;
15408;SDS011;7803;48.130;13.788;2022-07-29T13:48:12;3.58;;;3.25;;
15408;SDS011;7803;48.130;13.788;2022-07-29T13:51:15;3.58;;;3.28;;
15408;SDS011;7803;48.130;13.788;2022-07-29T13:54:17;3.75;;;3.45;;
15408;SDS011;7803;48.130;13.788;2022-07-29T13:57:19;3.90;;;3.60;;
15408;SDS011;7803;48.130;13.788;2022-07-29T14:00:21;3.70;;;3.40;;
15408;SDS011;7803;48.130;13.788;2022-07-29T14:03:24;3.67;;;3.38;;
15408;SDS011;7803;48.130;13.788;2022-07-29T14:06:28;4.28;;;3.50;;
15408;SDS011;7803;48.130;13.788;2022-07-29T14:09:30;3.65;;;3.35;;
15408;SDS011;7803;48.130;13.788;2022-07-29T14:12:32;3.70;;;3.20;;
15408;SDS011;7803;48.130;13.788;2022-07-29T14:15:34;3.40;;;3.10;;
15408;SDS011;7803;48.130;13.788;2022-07-29T14:18:36;3.55;;;3.25;;
15408;SDS011;7803;48.130;13.788;2022-07-29T14:21:40;3.45;;;3.15;;
15408;SDS011;7803;48.130;13.788;2022-07-29T14:24:42;3.70;;;3.40;;
15408;SDS011;7803;48.130;13.788;2022-07-29T14:27:44;3.65;;;3.35;;
15408;SDS011;7803;48.130;13.788;2022-07-29T14:30:46;3.63;;;3.33;;
15408;SDS011;7803;48.130;13.788;2022-07-29T14:33:48;3.70;;;3.40;;
15408;SDS011;7803;48.130;13.788;2022-07-29T14:36:52;3.20;;;3.00;;
15408;SDS011;7803;48.130;13.788;2022-07-29T14:39:55;3.40;;;3.10;;
15408;SDS011;7803;48.130;13.788;2022-07-29T14:42:59;3.95;;;3.65;;
15408;SDS011;7803;48.130;13.788;2022-07-29T14:46:01;3.40;;;3.10;;
15408;SDS011;7803;48.130;13.788;2022-07-29T14:49:03;3.20;;;2.97;;
15408;SDS011;7803;48.130;13.788;2022-07-29T14:52:07;4.10;;;3.70;;
15408;SDS011;7803;48.130;13.788;2022-07-29T14:55:10;3.40;;;3.10;;
15408;SDS011;7803;48.130;13.788;2022-07-29T14:58:12;3.47;;;3.10;;
15408;SDS011;7803;48.130;13.788;2022-07-29T15:01:14;3.70;;;3.40;;
15408;SDS011;7803;48.130;13.788;2022-07-29T15:04:16;3.50;;;3.20;;
15408;SDS011;7803;48.130;13.788;2022-07-29T15:07:19;3.35;;;2.90;;
15408;SDS011;7803;48.130;13.788;2022-07-29T15:10:21;3.58;;;3.28;;
15408;SDS011;7803;48.130;13.788;2022-07-29T15:13:23;3.60;;;3.30;;
15408;SDS011;7803;48.130;13.788;2022-07-29T15:16:25;3.45;;;3.15;;
15408;SDS011;7803;48.130;13.788;2022-07-29T15:19:27;3.40;;;3.13;;
15408;SDS011;7803;48.130;13.788;2022-07-29T15:22:31;3.22;;;2.92;;
15408;SDS011;7803;48.130;13.788;2022-07-29T15:25:33;3.60;;;3.30;;
15408;SDS011;7803;48.130;13.788;2022-07-29T15:28:36;4.05;;;3.67;;
15408;SDS011;7803;48.130;13.788;2022-07-29T15:31:38;3.70;;;3.40;;
15408;SDS011;7803;48.130;13.788;2022-07-29T15:34:40;3.80;;;3.17;;
15408;SDS011;7803;48.130;13.788;2022-07-29T15:37:43;3.67;;;3.38;;
15408;SDS011;7803;48.130;13.788;2022-07-29T15:40:45;3.50;;;3.22;;
15408;SDS011;7803;48.130;13.788;2022-07-29T15:43:48;3.80;;;3.50;;
15408;SDS011;7803;48.130;13.788;2022-07-29T15:46:50;3.83;;;3.53;;
15408;SDS011;7803;48.130;13.788;2022-07-29T15:50:06;3.83;;;3.53;;
15408;SDS011;7803;48.130;13.788;2022-07-29T15:53:16;3.80;;;3.50;;
15408;SDS011;7803;48.130;13.788;2022-07-29T15:56:18;3.47;;;3.17;;
15408;SDS011;7803;48.130;13.788;2022-07-29T15:59:20;3.45;;;3.22;;
15408;SDS011;7803;48.130;13.788;2022-07-29T16:02:22;3.45;;;3.15;;
15408;SDS011;7803;48.130;13.788;2022-07-29T16:05:24;3.67;;;3.38;;
15408;SDS011;7803;48.130;13.788;2022-07-29T16:08:30;3.88;;;3.50;;
15408;SDS011;7803;48.130;13.788;2022-07-29T16:11:32;3.50;;;3.20;;
15408;SDS011;7803;48.130;13.788;2022-07-29T16:14:34;3.60;;;3.30;;
15408;SDS011;7803;48.130;13.788;2022-07-29T16:17:36;3.63;;;3.33;;
15408;SDS011;7803;48.130;13.788;2022-07-29T16:20:38;3.20;;;3.00;;
15408;SDS011;7803;48.130;13.788;2022-07-29T16:23:42;5.30;;;3.65;;
15408;SDS011;7803;48.130;13.788;2022-07-29T16:26:44;4.05;;;3.42;;
15408;SDS011;7803;48.130;13.788;2022-07-29T16:29:46;4.13;;;3.28;;
15408;SDS011;7803;48.130;13.788;2022-07-29T16:32:49;3.63;;;3.33;;
15408;SDS011;7803;48.130;13.788;2022-07-29T16:35:51;3.47;;;3.17;;
15408;SDS011;7803;48.130;13.788;2022-07-29T16:38:54;3.20;;;3.00;;
15408;SDS011;7803;48.130;13.788;2022-07-29T16:41:56;3.75;;;3.45;;
15408;SDS011;7803;48.130;13.788;2022-07-29T16:44:58;3.85;;;3.20;;
15408;SDS011;7803;48.130;13.788;2022-07-29T16:48:01;3.33;;;3.13;;
15408;SDS011;7803;48.130;13.788;2022-07-29T16:51:03;3.30;;;3.00;;
15408;SDS011;7803;48.130;13.788;2022-07-29T16:54:07;3.53;;;3.22;;
15408;SDS011;7803;48.130;13.788;2022-07-29T16:57:09;3.45;;;3.15;;
15408;SDS011;7803;48.130;13.788;2022-07-29T17:00:12;3.80;;;3.10;;
15408;SDS011;7803;48.130;13.788;2022-07-29T17:03:16;3.47;;;3.17;;
15408;SDS011;7803;48.130;13.788;2022-07-29T17:06:18;3.67;;;3.38;;
15408;SDS011;7803;48.130;13.788;2022-07-29T17:09:21;3.40;;;3.10;;
15408;SDS011;7803;48.130;13.788;2022-07-29T17:12:24;3.30;;;3.00;;
15408;SDS011;7803;48.130;13.788;2022-07-29T17:15:26;3.25;;;3.05;;
15408;SDS011;7803;48.130;13.788;2022-07-29T17:18:28;3.33;;;3.08;;
15408;SDS011;7803;48.130;13.788;2022-07-29T17:21:30;4.75;;;3.40;;
15408;SDS011;7803;48.130;13.788;2022-07-29T17:24:34;3.42;;;3.17;;
15408;SDS011;7803;48.130;13.788;2022-07-29T17:27:36;3.40;;;3.10;;
15408;SDS011;7803;48.130;13.788;2022-07-29T17:30:38;3.20;;;2.90;;
15408;SDS011;7803;48.130;13.788;2022-07-29T17:33:40;3.67;;;3.20;;
15408;SDS011;7803;48.130;13.788;2022-07-29T17:36:42;3.40;;;3.10;;
15408;SDS011;7803;48.130;13.788;2022-07-29T17:39:45;8.02;;;3.60;;
15408;SDS011;7803;48.130;13.788;2022-07-29T17:42:47;7.43;;;3.33;;
15408;SDS011;7803;48.130;13.788;2022-07-29T17:45:50;6.30;;;3.30;;
15408;SDS011;7803;48.130;13.788;2022-07-29T17:48:52;4.75;;;3.33;;
15408;SDS011;7803;48.130;13.788;2022-07-29T17:51:54;3.88;;;3.20;;
15408;SDS011;7803;48.130;13.788;2022-07-29T17:54:58;3.30;;;3.00;;
15408;SDS011;7803;48.130;13.788;2022-07-29T17:58:00;3.70;;;3.35;;
15408;SDS011;7803;48.130;13.788;2022-07-29T18:01:02;3.70;;;3.40;;
15408;SDS011;7803;48.130;13.788;2022-07-29T18:04:04;5.97;;;3.60;;
15408;SDS011;7803;48.130;13.788;2022-07-29T18:07:06;6.10;;;3.38;;
15408;SDS011;7803;48.130;13.788;2022-07-29T18:10:10;4.68;;;3.22;;
15408;SDS011;7803;48.130;13.788;2022-07-29T18:13:12;5.82;;;3.33;;
15408;SDS011;7803;48.130;13.788;2022-07-29T18:16:15;6.55;;;3.30;;
15408;SDS011;7803;48.130;13.788;2022-07-29T18:19:17;3.45;;;3.15;;
15408;SDS011;7803;48.130;13.788;2022-07-29T18:22:19;3.90;;;3.50;;
15408;SDS011;7803;48.130;13.788;2022-07-29T18:25:24;4.07;;;3.67;;
15408;SDS011;7803;48.130;13.788;2022-07-29T18:28:26;5.30;;;4.00;;
15408;SDS011;7803;48.130;13.788;2022-07-29T18:31:28;6.03;;;3.60;;
15408;SDS011;7803;48.130;13.788;2022-07-29T18:34:30;3.85;;;3.45;;
15408;SDS011;7803;48.130;13.788;2022-07-29T18:37:32;5.53;;;3.88;;
15408;SDS011;7803;48.130;13.788;2022-07-29T18:40:36;3.80;;;3.50;;
15408;SDS011;7803;48.130;13.788;2022-07-29T18:43:40;4.32;;;3.90;;